Time;durP1;ratioP1;P1;durP2;ratioP2;P2;SDS_P1;SDS_P2;PMS_P1;PMS_P2;Temp;Humidity;BMP_temperature;BMP_pressure;BME280_temperature;BME280_humidity;BME280_pressure;Samples;Min_cycle;Max_cycle;Signal;HPM_P1;HPM_P2
2022/06/20 00:04:29;;;;;;;;;;;;;;;15.54;51.02246;101526.3;;;;-82
2022/06/20 00:07:18;;;;;;;;;;;;;;;15.14;51.30371;101536.3;;;;-81
2022/06/20 00:10:45;;;;;;;3.8;1;;;;;;;;;;;;;-82
2022/06/20 00:12:20;;;;;;;;;;;;;;;15.05;51.45117;101526.9;;;;-81
2022/06/20 00:17:18;;;;;;;;;;;;;;;15.01;51.42383;101549.8;;;;-79
2022/06/20 00:22:17;;;;;;;;;;;;;;;14.97;51.38574;101541.5;;;;-79
2022/06/20 00:27:17;;;;;;;;;;;;;;;14.94;51.44922;101535.2;;;;-83
2022/06/20 00:32:17;;;;;;;;;;;;;;;14.9;51.5918;101544.6;;;;-82
2022/06/20 00:37:20;;;;;;;;;;;;;;;14.86;51.49609;101546.4;;;;-81
2022/06/20 00:40:47;;;;;;;5.4;1;;;;;;;;;;;;;-82
2022/06/20 00:42:17;;;;;;;;;;;;;;;14.8;51.59082;101555;;;;-81
2022/06/20 00:47:19;;;;;;;;;;;;;;;14.8;51.7041;101581.6;;;;-81
2022/06/20 00:52:18;;;;;;;;;;;;;;;14.78;51.61133;101576.8;;;;-81
2022/06/20 00:57:22;;;;;;;;;;;;;;;14.77;51.53027;101586.6;;;;-82
2022/06/20 01:02:21;;;;;;;;;;;;;;;14.77;51.56445;101588.5;;;;-82
2022/06/20 01:07:26;;;;;;;;;;;;;;;14.74;51.5498;101572.8;;;;-83
2022/06/20 01:10:49;;;;;;;3.3;0.9;;;;;;;;;;;;;-81
2022/06/20 01:12:25;;;;;;;;;;;;;;;14.74;51.61719;101576.3;;;;-82
2022/06/20 01:17:20;;;;;;;;;;;;;;;14.7;51.81641;101580.4;;;;-80
2022/06/20 01:22:22;;;;;;;;;;;;;;;14.64;52.03418;101569.6;;;;-82
2022/06/20 01:27:26;;;;;;;;;;;;;;;14.59;52.17383;101582.7;;;;-82
2022/06/20 01:32:24;;;;;;;;;;;;;;;14.53;52.22363;101605.5;;;;-81
2022/06/20 01:37:29;;;;;;;;;;;;;;;14.46;52.46387;101623.8;;;;-82
2022/06/20 01:42:26;;;;;;;;;;;;;;;14.4;52.49023;101617.1;;;;-81
2022/06/20 01:47:18;;;;;;;;;;;;;;;14.32;52.50293;101636.8;;;;-82
2022/06/20 01:52:18;;;;;;;;;;;;;;;14.24;52.58398;101633.3;;;;-82
2022/06/20 01:57:22;;;;;;;;;;;;;;;14.17;52.6416;101631.9;;;;-82
2022/06/20 02:02:22;;;;;;;;;;;;;;;14.09;52.50879;101630.5;;;;-83
2022/06/20 02:07:19;;;;;;;;;;;;;;;14.01;52.56641;101627.2;;;;-81
2022/06/20 02:10:59;;;;;;;2.7;0.9;;;;;;;;;;;;;-82
2022/06/20 02:12:26;;;;;;;;;;;;;;;13.94;52.68262;101628.8;;;;-82
2022/06/20 02:17:18;;;;;;;;;;;;;;;13.85;52.80566;101610.9;;;;-82
2022/06/20 02:22:17;;;;;;;;;;;;;;;13.78;52.69629;101593.6;;;;-82
2022/06/20 02:27:21;;;;;;;;;;;;;;;13.72;52.8125;101581.2;;;;-81
2022/06/20 02:32:22;;;;;;;;;;;;;;;13.66;52.82813;101579.9;;;;-82
2022/06/20 02:37:20;;;;;;;;;;;;;;;13.62;53.07031;101578.8;;;;-82
2022/06/20 02:40:52;;;;;;;2.4;1;;;;;;;;;;;;;-82
2022/06/20 02:42:19;;;;;;;;;;;;;;;13.56;53.0752;101581.5;;;;-82
2022/06/20 02:47:23;;;;;;;;;;;;;;;13.48;53.08789;101582.1;;;;-80
2022/06/20 02:52:20;;;;;;;;;;;;;;;13.43;53.11328;101580.5;;;;-81
2022/06/20 02:57:20;;;;;;;;;;;;;;;13.36;53.35254;101570.2;;;;-81
2022/06/20 03:02:18;;;;;;;;;;;;;;;13.31;53.23535;101574.9;;;;-81
2022/06/20 03:07:18;;;;;;;;;;;;;;;13.25;53.50781;101565.1;;;;-80
2022/06/20 03:11:02;;;;;;;2.7;0.9;;;;;;;;;;;;;-81
2022/06/20 03:12:19;;;;;;;;;;;;;;;13.19;53.31055;101563.5;;;;-81
2022/06/20 03:17:21;;;;;;;;;;;;;;;13.14;53.37109;101553;;;;-81
2022/06/20 03:22:20;;;;;;;;;;;;;;;13.08;53.4082;101557.7;;;;-82
2022/06/20 03:27:20;;;;;;;;;;;;;;;13.02;53.41309;101550.7;;;;-80
2022/06/20 03:32:18;;;;;;;;;;;;;;;12.98;53.35156;101553.4;;;;-81
2022/06/20 03:37:17;;;;;;;;;;;;;;;12.97;53.43945;101565.9;;;;-82
2022/06/20 03:40:55;;;;;;;4.1;1.1;;;;;;;;;;;;;-81
2022/06/20 03:42:17;;;;;;;;;;;;;;;12.92;53.50195;101565.8;;;;-81
2022/06/20 03:47:21;;;;;;;;;;;;;;;12.88;53.45215;101560.6;;;;-80
2022/06/20 03:52:20;;;;;;;;;;;;;;;12.84;53.59375;101563.1;;;;-82
2022/06/20 03:57:22;;;;;;;;;;;;;;;12.83;53.50293;101559.4;;;;-83
2022/06/20 04:02:19;;;;;;;;;;;;;;;12.82;53.4668;101556.8;;;;-80
2022/06/20 04:07:20;;;;;;;;;;;;;;;12.85;53.43652;101559.4;;;;-81
2022/06/20 04:11:04;;;;;;;2.7;1.1;;;;;;;;;;;;;-81
2022/06/20 04:12:19;;;;;;;;;;;;;;;12.86;53.49414;101557.2;;;;-83
2022/06/20 04:22:24;;;;;;;;;;;;;;;12.85;53.61621;101552.4;;;;-84
2022/06/20 04:27:21;;;;;;;;;;;;;;;12.88;53.6416;101558;;;;-80
2022/06/20 04:32:20;;;;;;;;;;;;;;;12.88;53.81152;101569.2;;;;-80
2022/06/20 04:37:20;;;;;;;;;;;;;;;12.92;53.6582;101572.5;;;;-82
2022/06/20 04:41:00;;;;;;;4.5;1.3;;;;;;;;;;;;;-83
2022/06/20 04:42:19;;;;;;;;;;;;;;;12.94;53.67188;101577.7;;;;-82
2022/06/20 04:47:22;;;;;;;;;;;;;;;12.96;53.68555;101580.4;;;;-82
2022/06/20 04:52:19;;;;;;;;;;;;;;;12.98;53.73242;101589;;;;-80
2022/06/20 04:57:18;;;;;;;;;;;;;;;13.04;53.74121;101591.2;;;;-82
2022/06/20 05:02:20;;;;;;;;;;;;;;;13.06;53.89941;101584;;;;-81
2022/06/20 05:07:22;;;;;;;;;;;;;;;13.14;54.01074;101589.1;;;;-83
2022/06/20 05:11:04;;;;;;;4.8;1.4;;;;;;;;;;;;;-81
2022/06/20 05:12:20;;;;;;;;;;;;;;;13.23;54.08887;101592;;;;-80
2022/06/20 05:17:21;;;;;;;;;;;;;;;13.31;54.26758;101584.6;;;;-81
2022/06/20 05:22:19;;;;;;;;;;;;;;;13.46;54.27441;101588.2;;;;-81
2022/06/20 05:27:22;;;;;;;;;;;;;;;13.96;54.26855;101593.3;;;;-82
2022/06/20 05:32:21;;;;;;;;;;;;;;;14.73;53.00195;101595.7;;;;-80
2022/06/20 05:37:27;;;;;;;;;;;;;;;15.48;51.92969;101598.8;;;;-80
2022/06/20 05:41:04;;;;;;;6.8;1.5;;;;;;;;;;;;;-82
2022/06/20 05:42:28;;;;;;;;;;;;;;;16.03;50.97852;101608.4;;;;-82
2022/06/20 05:47:23;;;;;;;;;;;;;;;16.64;50.16504;101603.7;;;;-80
2022/06/20 05:52:21;;;;;;;;;;;;;;;17.24;49.28027;101611.7;;;;-82
2022/06/20 05:57:20;;;;;;;;;;;;;;;17.69;48.40039;101610.9;;;;-82
2022/06/20 06:02:31;;;;;;;;;;;;;;;18.13;48.02832;101621.9;;;;-82
2022/06/20 06:07:19;;;;;;;;;;;;;;;18.53;48.03711;101625.8;;;;-82
2022/06/20 06:11:23;;;;;;;4.4;1.5;;;;;;;;;;;;;-84
2022/06/20 06:12:22;;;;;;;;;;;;;;;18.71;47.83887;101622.7;;;;-83
2022/06/20 06:17:23;;;;;;;;;;;;;;;18.96;47.19434;101622.9;;;;-81
2022/06/20 06:22:24;;;;;;;;;;;;;;;19.35;46.79199;101616.2;;;;-83
2022/06/20 06:27:23;;;;;;;;;;;;;;;19.76;46.2998;101620.2;;;;-82
2022/06/20 06:32:20;;;;;;;;;;;;;;;20.1;45.64941;101617.4;;;;-82
2022/06/20 06:37:20;;;;;;;;;;;;;;;20.4;45.22266;101621.4;;;;-80
2022/06/20 06:41:13;;;;;;;7.1;1.7;;;;;;;;;;;;;-81
2022/06/20 06:42:18;;;;;;;;;;;;;;;20.63;44.96094;101634.7;;;;-82
2022/06/20 06:47:21;;;;;;;;;;;;;;;21.01;44.16211;101643.6;;;;-82
2022/06/20 06:52:20;;;;;;;;;;;;;;;21.21;43.68945;101652.5;;;;-82
2022/06/20 06:57:24;;;;;;;;;;;;;;;21.48;43.2334;101643.2;;;;-81
2022/06/20 07:02:20;;;;;;;;;;;;;;;21.82;42.60156;101645.6;;;;-82
2022/06/20 07:07:22;;;;;;;;;;;;;;;22.17;41.96875;101649.2;;;;-84
2022/06/20 07:11:24;;;;;;;5.8;1.7;;;;;;;;;;;;;-81
2022/06/20 07:12:19;;;;;;;;;;;;;;;22.44;41.56836;101659.9;;;;-78
2022/06/20 07:17:18;;;;;;;;;;;;;;;22.7;41.23535;101653.8;;;;-76
2022/06/20 07:22:18;;;;;;;;;;;;;;;23.03;40.63281;101650.4;;;;-77
2022/06/20 07:27:19;;;;;;;;;;;;;;;23.11;40.0752;101655;;;;-76
2022/06/20 07:32:19;;;;;;;;;;;;;;;23.26;39.81152;101665;;;;-79
2022/06/20 07:37:19;;;;;;;;;;;;;;;23.42;39.59473;101656.3;;;;-78
2022/06/20 07:41:13;;;;;;;3.1;1.3;;;;;;;;;;;;;-78
2022/06/20 07:42:21;;;;;;;;;;;;;;;23.72;39.12598;101652.7;;;;-78
2022/06/20 07:47:19;;;;;;;;;;;;;;;24.14;38.7002;101664.9;;;;-78
2022/06/20 07:52:19;;;;;;;;;;;;;;;24.43;38.10156;101668.1;;;;-76
2022/06/20 07:57:20;;;;;;;;;;;;;;;24.36;38.17578;101668.8;;;;-77
2022/06/20 08:02:22;;;;;;;;;;;;;;;24.28;38.6084;101680.7;;;;-77
2022/06/20 08:07:22;;;;;;;;;;;;;;;24.21;38.75195;101677.2;;;;-77
2022/06/20 08:11:40;;;;;;;4.8;1.5;;;;;;;;;;;;;-77
2022/06/20 08:12:21;;;;;;;;;;;;;;;24.11;39.04395;101671.7;;;;-79
2022/06/20 08:17:16;;;;;;;;;;;;;;;24.15;39.11719;101684.7;;;;-77
2022/06/20 08:22:20;;;;;;;;;;;;;;;24.17;38.62305;101682.1;;;;-77
2022/06/20 08:27:20;;;;;;;;;;;;;;;23.9;38.63281;101686.9;;;;-78
2022/06/20 08:32:21;;;;;;;;;;;;;;;23.71;39.00977;101698.7;;;;-77
2022/06/20 08:37:19;;;;;;;;;;;;;;;23.6;39.18457;101703.9;;;;-78
2022/06/20 08:41:28;;;;;;;4.6;1.3;;;;;;;;;;;;;-75
2022/06/20 08:42:28;;;;;;;;;;;;;;;23.61;39.18555;101713.3;;;;-75
2022/06/20 08:47:30;;;;;;;;;;;;;;;23.72;39.02246;101720;;;;-77
2022/06/20 08:52:40;;;;;;;;;;;;;;;23.81;38.86816;101720.3;;;;-75
2022/06/20 08:57:18;;;;;;;;;;;;;;;23.8;38.74023;101720.8;;;;-76
2022/06/20 09:02:24;;;;;;;;;;;;;;;23.82;38.62598;101727.4;;;;-75
2022/06/20 09:07:29;;;;;;;;;;;;;;;23.91;38.66895;101735.4;;;;-78
2022/06/20 09:11:26;;;;;;;4.2;1.5;;;;;;;;;;;;;-75
2022/06/20 09:12:23;;;;;;;;;;;;;;;24.07;38.41699;101729.4;;;;-76
2022/06/20 09:17:21;;;;;;;;;;;;;;;24.22;37.875;101734.5;;;;-77
2022/06/20 09:22:23;;;;;;;;;;;;;;;24.19;37.72266;101734.6;;;;-75
2022/06/20 09:27:19;;;;;;;;;;;;;;;24.31;37.85938;101740.1;;;;-76
2022/06/20 09:32:32;;;;;;;;;;;;;;;24.39;37.50879;101743.7;;;;-77
2022/06/20 09:37:30;;;;;;;;;;;;;;;24.54;37.3584;101742.9;;;;-75
2022/06/20 09:41:29;;;;;;;7.4;1.4;;;;;;;;;;;;;-75
2022/06/20 09:42:21;;;;;;;;;;;;;;;24.63;37.23926;101744.1;;;;-75
2022/06/20 09:47:25;;;;;;;;;;;;;;;24.93;37.29883;101738.8;;;;-75
2022/06/20 09:52:21;;;;;;;;;;;;;;;25.12;36.3418;101747.2;;;;-75
2022/06/20 09:57:23;;;;;;;;;;;;;;;25.08;36.58105;101742.7;;;;-76
2022/06/20 10:02:20;;;;;;;;;;;;;;;25.26;36.51465;101737.2;;;;-76
2022/06/20 10:07:20;;;;;;;;;;;;;;;25.57;36.48242;101733.2;;;;-74
2022/06/20 10:11:30;;;;;;;5.6;1.4;;;;;;;;;;;;;-76
2022/06/20 10:12:21;;;;;;;;;;;;;;;25.9;35.75391;101745.4;;;;-76
2022/06/20 10:17:23;;;;;;;;;;;;;;;26.15;35.59961;101758.1;;;;-76
2022/06/20 10:22:19;;;;;;;;;;;;;;;26.35;35.12793;101769.1;;;;-79
2022/06/20 10:27:24;;;;;;;;;;;;;;;26.53;35.16406;101773.3;;;;-78
2022/06/20 10:32:19;;;;;;;;;;;;;;;26.46;34.76367;101780.5;;;;-78
2022/06/20 10:37:22;;;;;;;;;;;;;;;26.36;35.16211;101771.6;;;;-79
2022/06/20 10:41:36;;;;;;;6.9;1.5;;;;;;;;;;;;;-78
2022/06/20 10:42:30;;;;;;;;;;;;;;;26.45;35.04199;101776.2;;;;-79
2022/06/20 10:47:21;;;;;;;;;;;;;;;26.59;35.08789;101771.5;;;;-77
2022/06/20 10:52:21;;;;;;;;;;;;;;;26.84;35.13086;101775.4;;;;-77
2022/06/20 10:57:24;;;;;;;;;;;;;;;26.95;34.80176;101772.5;;;;-78
2022/06/20 11:02:24;;;;;;;;;;;;;;;27.13;34.7334;101775.3;;;;-78
2022/06/20 11:07:25;;;;;;;;;;;;;;;27.25;34.26563;101772;;;;-76
2022/06/20 11:11:43;;;;;;;6.3;1.5;;;;;;;;;;;;;-78
2022/06/20 11:12:26;;;;;;;;;;;;;;;27.39;34.20703;101766.7;;;;-78
2022/06/20 11:17:23;;;;;;;;;;;;;;;27.58;33.90527;101772;;;;-80
2022/06/20 11:22:29;;;;;;;;;;;;;;;27.75;33.67383;101780.8;;;;-78
2022/06/20 11:27:42;;;;;;;;;;;;;;;27.94;33.2334;101773.1;;;;-78
2022/06/20 11:32:21;;;;;;;;;;;;;;;27.91;33.04395;101774.1;;;;-78
2022/06/20 11:37:24;;;;;;;;;;;;;;;27.89;32.9375;101786.3;;;;-78
2022/06/20 11:41:41;;;;;;;5.6;1.5;;;;;;;;;;;;;-77
2022/06/20 11:42:29;;;;;;;;;;;;;;;27.79;32.73242;101793;;;;-78
2022/06/20 11:47:28;;;;;;;;;;;;;;;27.79;32.84863;101786.3;;;;-78
2022/06/20 11:52:20;;;;;;;;;;;;;;;27.98;32.70996;101786.8;;;;-80
2022/06/20 11:57:21;;;;;;;;;;;;;;;28.12;32.00879;101788;;;;-78
2022/06/20 12:02:24;;;;;;;;;;;;;;;28.23;31.67773;101788.5;;;;-79
2022/06/20 12:07:20;;;;;;;;;;;;;;;28.27;31.21289;101793.7;;;;-77
2022/06/20 12:11:52;;;;;;;4.1;1.4;;;;;;;;;;;;;-79
2022/06/20 12:12:28;;;;;;;;;;;;;;;28.27;31.0498;101802.1;;;;-79
2022/06/20 12:17:24;;;;;;;;;;;;;;;28.3;31.4248;101801.2;;;;-81
2022/06/20 12:27:19;;;;;;;;;;;;;;;28.61;31.45898;101799.2;;;;-79
2022/06/20 12:32:20;;;;;;;;;;;;;;;28.66;31.32129;101802.9;;;;-78
2022/06/20 12:37:20;;;;;;;;;;;;;;;28.56;30.97559;101806;;;;-78
2022/06/20 12:41:50;;;;;;;4.7;1.2;;;;;;;;;;;;;-78
2022/06/20 12:42:20;;;;;;;;;;;;;;;28.48;30.86523;101812.7;;;;-79
2022/06/20 12:47:32;;;;;;;;;;;;;;;28.6;31.03613;101796.5;;;;-78
2022/06/20 12:52:20;;;;;;;;;;;;;;;28.59;30.74414;101815;;;;-77
2022/06/20 12:57:25;;;;;;;;;;;;;;;28.51;30.85547;101820.9;;;;-78
2022/06/20 13:02:23;;;;;;;;;;;;;;;28.43;31.03711;101817.8;;;;-77
2022/06/20 13:07:33;;;;;;;;;;;;;;;28.42;30.9541;101812.1;;;;-77
2022/06/20 13:11:57;;;;;;;3.8;1.2;;;;;;;;;;;;;-78
2022/06/20 13:12:24;;;;;;;;;;;;;;;28.36;30.98535;101810.7;;;;-78
2022/06/20 13:17:27;;;;;;;;;;;;;;;28.42;31.05957;101809.7;;;;-79
2022/06/20 13:22:20;;;;;;;;;;;;;;;28.54;31.16211;101806.7;;;;-78
2022/06/20 13:27:21;;;;;;;;;;;;;;;28.84;30.88965;101806;;;;-76
2022/06/20 13:32:21;;;;;;;;;;;;;;;29.22;30.72754;101810.5;;;;-77
2022/06/20 13:37:26;;;;;;;;;;;;;;;29.41;30.16699;101813.4;;;;-78
2022/06/20 13:41:59;;;;;;;4.6;1.4;;;;;;;;;;;;;-78
2022/06/20 13:42:19;;;;;;;;;;;;;;;29.64;29.9707;101816.4;;;;-79
2022/06/20 13:47:25;;;;;;;;;;;;;;;29.88;29.49414;101825.2;;;;-78
2022/06/20 13:52:19;;;;;;;;;;;;;;;29.94;29.62695;101824.8;;;;-79
2022/06/20 13:57:20;;;;;;;;;;;;;;;29.82;29.53711;101820;;;;-79
2022/06/20 14:02:27;;;;;;;;;;;;;;;29.65;29.80762;101824.9;;;;-79
2022/06/20 14:07:24;;;;;;;;;;;;;;;29.69;30.47852;101834.4;;;;-79
2022/06/20 14:12:03;;;;;;;4.7;1.5;;;;;;;;;;;;;-79
2022/06/20 14:12:25;;;;;;;;;;;;;;;29.88;29.81152;101830.8;;;;-78
2022/06/20 14:17:23;;;;;;;;;;;;;;;29.97;29.67578;101841;;;;-76
2022/06/20 14:22:27;;;;;;;;;;;;;;;29.82;29.57129;101836.1;;;;-77
2022/06/20 14:27:19;;;;;;;;;;;;;;;29.53;29.34277;101839.1;;;;-79
2022/06/20 14:32:23;;;;;;;;;;;;;;;29.21;30.30566;101840.1;;;;-78
2022/06/20 14:37:19;;;;;;;;;;;;;;;28.86;30.60938;101840.9;;;;-77
2022/06/20 14:42:11;;;;;;;3.5;1.4;;;;;;;;;;;;;-77
2022/06/20 14:42:23;;;;;;;;;;;;;;;28.55;30.85742;101842.8;;;;-77
2022/06/20 14:47:27;;;;;;;;;;;;;;;28.46;30.76953;101837.3;;;;-79
2022/06/20 14:52:25;;;;;;;;;;;;;;;28.59;30.66211;101833.8;;;;-77
2022/06/20 14:57:21;;;;;;;;;;;;;;;28.84;30.71484;101833.8;;;;-77
2022/06/20 15:02:21;;;;;;;;;;;;;;;29.05;30.54102;101836.7;;;;-77
2022/06/20 15:07:21;;;;;;;;;;;;;;;29.08;30.16797;101840.5;;;;-77
2022/06/20 15:12:21;;;;;;;2.8;1.2;;;;;;;;;;;;;-77
2022/06/20 15:12:35;;;;;;;;;;;;;;;29.17;30.50195;101826.8;;;;-77
2022/06/20 15:17:18;;;;;;;;;;;;;;;29.26;30.25;101829.5;;;;-79
2022/06/20 15:22:25;;;;;;;;;;;;;;;29.15;30.35938;101833;;;;-77
2022/06/20 15:27:22;;;;;;;;;;;;;;;28.91;30.68359;101834.6;;;;-77
2022/06/20 15:32:26;;;;;;;;;;;;;;;28.65;30.73633;101844;;;;-77
2022/06/20 15:37:20;;;;;;;;;;;;;;;28.41;31;101833;;;;-77
2022/06/20 15:42:22;;;;;;;5.2;1.6;;;;;;;;;;;;;-77
2022/06/20 15:42:41;;;;;;;;;;;;;;;28.31;31.70605;101835.6;;;;-76
2022/06/20 15:47:24;;;;;;;;;;;;;;;28.42;31.52734;101836.2;;;;-79
2022/06/20 15:52:27;;;;;;;;;;;;;;;28.62;31.20215;101834.3;;;;-78
2022/06/20 15:57:22;;;;;;;;;;;;;;;28.89;30.91602;101833;;;;-78
2022/06/20 16:02:24;;;;;;;;;;;;;;;29.07;30.71777;101835.8;;;;-77
2022/06/20 16:07:24;;;;;;;;;;;;;;;29.08;30.54297;101840;;;;-78
2022/06/20 16:12:18;;;;;;;;;;;;;;;28.95;30.5918;101839.6;;;;-79
2022/06/20 16:12:30;;;;;;;5.5;1.4;;;;;;;;;;;;;-79
2022/06/20 16:17:17;;;;;;;;;;;;;;;28.78;30.6748;101837.7;;;;-79
2022/06/20 16:22:23;;;;;;;;;;;;;;;28.53;31.11328;101830.8;;;;-77
2022/06/20 16:27:29;;;;;;;;;;;;;;;28.37;30.8457;101820.7;;;;-78
2022/06/20 16:32:27;;;;;;;;;;;;;;;28.28;31.31836;101818.7;;;;-78
2022/06/20 16:37:17;;;;;;;;;;;;;;;28.22;31.31445;101822.1;;;;-77
2022/06/20 16:42:19;;;;;;;;;;;;;;;28.13;31.38965;101841.6;;;;-77
2022/06/20 16:42:39;;;;;;;4;1.6;;;;;;;;;;;;;-77
2022/06/20 16:47:25;;;;;;;;;;;;;;;27.95;31.91406;101846.8;;;;-75
2022/06/20 16:52:22;;;;;;;;;;;;;;;27.73;32.37793;101848.9;;;;-74
2022/06/20 16:57:18;;;;;;;;;;;;;;;27.49;32.6875;101840.7;;;;-75
2022/06/20 17:02:20;;;;;;;;;;;;;;;27.23;32.98242;101834.4;;;;-75
2022/06/20 17:07:23;;;;;;;;;;;;;;;27.03;33.25879;101839.6;;;;-75
2022/06/20 17:12:23;;;;;;;;;;;;;;;26.81;33.35938;101832.6;;;;-75
2022/06/20 17:12:35;;;;;;;4.2;1.7;;;;;;;;;;;;;-75
2022/06/20 17:17:23;;;;;;;;;;;;;;;26.66;33.41797;101839.3;;;;-75
2022/06/20 17:22:20;;;;;;;;;;;;;;;26.54;33.64258;101833.2;;;;-75
2022/06/20 17:27:18;;;;;;;;;;;;;;;26.42;33.77246;101832.1;;;;-76
2022/06/20 17:32:23;;;;;;;;;;;;;;;26.24;33.85254;101827.5;;;;-76
2022/06/20 17:37:22;;;;;;;;;;;;;;;26.07;33.78125;101827;;;;-79
2022/06/20 17:42:21;;;;;;;;;;;;;;;25.92;33.97949;101827.3;;;;-78
2022/06/20 17:42:35;;;;;;;4.1;1.6;;;;;;;;;;;;;-74
2022/06/20 17:47:22;;;;;;;;;;;;;;;25.82;34.22656;101833.5;;;;-78
2022/06/20 17:52:28;;;;;;;;;;;;;;;25.72;34.46387;101839.7;;;;-79
2022/06/20 17:57:22;;;;;;;;;;;;;;;25.67;34.64453;101842.4;;;;-76
2022/06/20 18:02:20;;;;;;;;;;;;;;;25.64;34.71289;101834.3;;;;-77
2022/06/20 18:07:18;;;;;;;;;;;;;;;25.57;34.54492;101838.5;;;;-77
2022/06/20 18:12:21;;;;;;;;;;;;;;;25.46;34.7207;101851;;;;-77
2022/06/20 18:12:43;;;;;;;3.8;1.7;;;;;;;;;;;;;-77
2022/06/20 18:17:18;;;;;;;;;;;;;;;25.33;34.8623;101851.3;;;;-77
2022/06/20 18:22:20;;;;;;;;;;;;;;;25.22;35.02832;101848.1;;;;-78
2022/06/20 18:27:19;;;;;;;;;;;;;;;25.06;35.17676;101860.8;;;;-76
2022/06/20 18:32:18;;;;;;;;;;;;;;;24.87;35.44043;101847.9;;;;-78
2022/06/20 18:37:24;;;;;;;;;;;;;;;24.75;35.52344;101847.9;;;;-78
2022/06/20 18:42:18;;;;;;;;;;;;;;;24.56;35.55469;101862.4;;;;-78
2022/06/20 18:42:50;;;;;;;4.8;1.6;;;;;;;;;;;;;-77
2022/06/20 18:47:24;;;;;;;;;;;;;;;24.43;35.66016;101861.5;;;;-78
2022/06/20 18:52:26;;;;;;;;;;;;;;;24.25;35.84277;101862.5;;;;-78
2022/06/20 18:57:22;;;;;;;;;;;;;;;23.99;36.06445;101870.8;;;;-77
2022/06/20 19:02:33;;;;;;;;;;;;;;;23.68;36.39844;101871.5;;;;-79
2022/06/20 19:07:39;;;;;;;;;;;;;;;23.39;36.62793;101872.2;;;;-78
2022/06/20 19:12:24;;;;;;;;;;;;;;;23.12;36.7793;101873.4;;;;-77
2022/06/20 19:12:56;;;;;;;4.2;1.7;;;;;;;;;;;;;-78
2022/06/20 19:17:25;;;;;;;;;;;;;;;22.86;36.93164;101876.1;;;;-78
2022/06/20 19:22:30;;;;;;;;;;;;;;;22.59;37.14941;101871.7;;;;-77
2022/06/20 19:27:18;;;;;;;;;;;;;;;22.28;37.22852;101868.2;;;;-79
2022/06/20 19:32:19;;;;;;;;;;;;;;;21.99;37.39844;101873.8;;;;-77
2022/06/20 19:37:19;;;;;;;;;;;;;;;21.68;37.60254;101871.8;;;;-78
2022/06/20 19:42:18;;;;;;;;;;;;;;;21.37;37.86426;101877.6;;;;-77
2022/06/20 19:42:55;;;;;;;4.1;1.7;;;;;;;;;;;;;-76
2022/06/20 19:47:26;;;;;;;;;;;;;;;21.04;38.12402;101882;;;;-78
2022/06/20 19:52:33;;;;;;;;;;;;;;;20.74;38.49805;101881.5;;;;-78
2022/06/20 19:57:18;;;;;;;;;;;;;;;20.43;38.91895;101880.1;;;;-76
2022/06/20 20:02:24;;;;;;;;;;;;;;;20.15;39.43164;101884;;;;-82
2022/06/20 20:07:39;;;;;;;;;;;;;;;19.87;39.88867;101890.4;;;;-83
2022/06/20 20:12:22;;;;;;;;;;;;;;;19.61;40.43555;101878.7;;;;-82
2022/06/20 20:12:59;;;;;;;3.8;1.7;;;;;;;;;;;;;-82
2022/06/20 20:17:19;;;;;;;;;;;;;;;19.35;40.9502;101884.4;;;;-83
2022/06/20 20:22:30;;;;;;;;;;;;;;;19.1;41.28027;101890.4;;;;-84
2022/06/20 20:27:28;;;;;;;;;;;;;;;18.88;41.63574;101887.2;;;;-84
2022/06/20 20:32:20;;;;;;;;;;;;;;;18.67;42.10645;101888.7;;;;-84
2022/06/20 20:37:31;;;;;;;;;;;;;;;18.45;42.53027;101889;;;;-83
2022/06/20 20:42:29;;;;;;;;;;;;;;;18.24;43;101886.4;;;;-82
2022/06/20 20:43:04;;;;;;;5.3;1.9;;;;;;;;;;;;;-84
2022/06/20 20:47:29;;;;;;;;;;;;;;;18.04;43.21875;101883.8;;;;-82
2022/06/20 20:52:20;;;;;;;;;;;;;;;17.86;43.58789;101878.2;;;;-83
2022/06/20 20:57:22;;;;;;;;;;;;;;;17.68;43.72949;101870.6;;;;-83
2022/06/20 21:02:20;;;;;;;;;;;;;;;17.49;44.06445;101873.3;;;;-84
2022/06/20 21:07:24;;;;;;;;;;;;;;;17.34;44.33301;101892.1;;;;-84
2022/06/20 21:12:23;;;;;;;;;;;;;;;17.18;44.65723;101911.3;;;;-84
2022/06/20 21:13:01;;;;;;;3.8;1.7;;;;;;;;;;;;;-85
2022/06/20 21:17:16;;;;;;;;;;;;;;;17.03;44.85742;101916.7;;;;-83
2022/06/20 21:22:20;;;;;;;;;;;;;;;16.88;45.2959;101907;;;;-84
2022/06/20 21:27:20;;;;;;;;;;;;;;;16.73;45.21289;101901.4;;;;-84
2022/06/20 21:32:18;;;;;;;;;;;;;;;16.61;45.42773;101896.2;;;;-82
2022/06/20 21:37:24;;;;;;;;;;;;;;;16.48;45.69727;101898.4;;;;-83
2022/06/20 21:42:17;;;;;;;;;;;;;;;16.35;45.95508;101892.2;;;;-82
2022/06/20 21:43:00;;;;;;;4.4;1.7;;;;;;;;;;;;;-84
2022/06/20 21:47:23;;;;;;;;;;;;;;;16.23;46.08984;101904.2;;;;-83
2022/06/20 21:52:34;;;;;;;;;;;;;;;16.14;46.51074;101894.8;;;;-83
2022/06/20 21:57:19;;;;;;;;;;;;;;;16.04;46.64746;101895.3;;;;-81
2022/06/20 22:07:19;;;;;;;;;;;;;;;15.85;46.86523;101878.3;;;;-81
2022/06/20 22:12:38;;;;;;;;;;;;;;;15.71;46.82813;101876.6;;;;-83
2022/06/20 22:13:01;;;;;;;7.1;2.1;;;;;;;;;;;;;-83
2022/06/20 22:17:27;;;;;;;;;;;;;;;15.61;47.19043;101873.1;;;;-83
2022/06/20 22:22:17;;;;;;;;;;;;;;;15.51;47.11035;101865;;;;-84
2022/06/20 22:27:25;;;;;;;;;;;;;;;15.42;47.46191;101869.8;;;;-82
2022/06/20 22:32:19;;;;;;;;;;;;;;;15.33;47.5;101870.1;;;;-82
2022/06/20 22:37:20;;;;;;;;;;;;;;;15.22;47.63281;101863.8;;;;-81
2022/06/20 22:42:24;;;;;;;;;;;;;;;15.12;47.83691;101860.4;;;;-81
2022/06/20 22:43:03;;;;;;;5.9;2.2;;;;;;;;;;;;;-84
2022/06/20 22:47:19;;;;;;;;;;;;;;;15.04;47.96387;101860.4;;;;-81
2022/06/20 22:52:20;;;;;;;;;;;;;;;14.95;47.8877;101856.3;;;;-82
2022/06/20 22:57:20;;;;;;;;;;;;;;;14.87;48.12598;101864.1;;;;-83
2022/06/20 23:02:19;;;;;;;;;;;;;;;14.79;48.30957;101859.4;;;;-81
2022/06/20 23:07:17;;;;;;;;;;;;;;;14.73;48.16699;101861.5;;;;-82
2022/06/20 23:12:19;;;;;;;;;;;;;;;14.6;48.27734;101868.6;;;;-84
2022/06/20 23:13:04;;;;;;;4.1;1.8;;;;;;;;;;;;;-82
2022/06/20 23:22:21;;;;;;;;;;;;;;;14.44;48.48438;101851.6;;;;-84
2022/06/20 23:27:17;;;;;;;;;;;;;;;14.36;48.75781;101859.9;;;;-81
2022/06/20 23:32:20;;;;;;;;;;;;;;;14.32;48.86621;101857.9;;;;-82
2022/06/20 23:37:19;;;;;;;;;;;;;;;14.23;48.83203;101864;;;;-83
2022/06/20 23:42:17;;;;;;;;;;;;;;;14.16;49.12988;101864.1;;;;-83
2022/06/20 23:43:06;;;;;;;5.2;1.9;;;;;;;;;;;;;-82
2022/06/20 23:47:23;;;;;;;;;;;;;;;14.08;49.23242;101861.4;;;;-85
2022/06/20 23:52:19;;;;;;;;;;;;;;;14.01;49.38281;101854.7;;;;-84
2022/06/20 23:57:19;;;;;;;;;;;;;;;13.94;49.5332;101861.6;;;;-82
